Terminal Aerodrome Forecast
Issued by NWS Sterling, VA

Current Version | Previous Version | Text Only | Print | Product List | Glossary On
Versions: 1 2 3 4 5 6 7 8 9 10 11 12 13 14 15 16 17 18 19 20 21 22 23
574
FTUS41 KLWX 230833 AAA
TAFBWI
TAF AMD
KBWI 230833Z 2309/2412 13006KT P6SM BKN015 WS020/20040KT
     FM231000 15008KT 3SM -SHRA BKN008 OVC015 WS020/20045KT
     FM231500 20010G18KT P6SM BKN025 OVC050
     FM231800 25014G25KT P6SM SCT050
     FM240300 27008KT P6SM SCT035=

USA.gov is the U.S. government's official web portal to all federal, state and local government web resources and services.